MMTG

Angel Albino Corzo International Airport

Tuxtla Gutiérrez, Mexico
TAF COR MMTG 210616Z 2106/2206 33005KT P6SM SCT020 SCT250 FM212100 30010KT P6SM SCT020 BKN080 PROB40 2122/2202 3SM TSRA BKN015CB
Issued Valid From Valid To
Jul-21 @ 06:16 UTC
(4 hours ago)
Jul-21 @ 06:00 UTC
(4 hours ago)
Jul-22 @ 06:00 UTC
(in 20 hours)
Jul-21 @ 06:00 to Jul-21 @ 21:00
TAF COR MMTG 210616Z 2106/2206 33005KT P6SM SCT020 SCT250
Wind Visibility Clouds
330° at 5 knots Greater than 6 miles
  • Scattered at 2,000' AGL
  • Scattered at 25,000' AGL
From Jul-21 @ 21:00 to Jul-22 @ 06:00
FM212100 30010KT P6SM SCT020 BKN080
Wind Visibility Clouds
300° at 10 knots Greater than 6 miles
  • Scattered at 2,000' AGL
  • Broken at 8,000' AGL
Probable  (Probability 40%) Jul-21 @ 22:00 to Jul-22 @ 02:00
PROB40 2122/2202 3SM TSRA BKN015CB
Visibility Clouds Conditions
3 miles
  • Broken at 1,500' AGL
  • Thunderstorm
  • Rain
TAF COR MMTG 210616Z 2106/2206 33005KT P6SM SCT020 SCT250 FM212100 30010KT P6SM SCT020 BKN080 PROB40 2122/2202 3SM TSRA BKN015CB
Issued Jul-21 @ 06:16 UTC
(4 hours ago)
Valid From Jul-21 @ 06:00 UTC
(4 hours ago)
Valid To Jul-22 @ 06:00 UTC
(in 20 hours)
Jul-21 @ 06:00 - Jul-21 @ 21:00
Wind Visibility
330° at 5 knots Greater than 6 miles
Clouds
  • Scattered at 2,000' AGL
  • Scattered at 25,000' AGL
From Jul-21 @ 21:00 - Jul-22 @ 06:00
Wind Visibility
300° at 10 knots Greater than 6 miles
Clouds
  • Scattered at 2,000' AGL
  • Broken at 8,000' AGL
Probability 40% Probable Jul-21 @ 22:00 - Jul-22 @ 02:00
Clouds
  • Broken at 1,500' AGL
Conditions
  • Thunderstorm
  • Rain